Impacts TAF Board
For situational awareness. Not to be used for flight planning purposes.
IDs:

KSFO - San Francisco Intl, CA, US

Issued at 1120 UTC 10 Aug 2022
Updated at 1340 UTC 10 Aug 2022
Potential Impact None Slight Moderate High
Time1256Z 10/14Z 10/15Z 10/16Z 10/17Z 10/18Z 10/19Z 10/20Z 10/21Z 10/22Z 10/23Z 11/00Z 11/01Z 11/02Z>>
Type OBS PRVL PRVL PRVL PRVL PRVL PRVL PRVL PRVL PRVL PRVL PRVL PRVL PRVL
VIS 10 >6 >6 >6 >6 >6 >6 >6 >6 >6 >6 >6 >6 >6
CIG 13 11 11 11 -- -- -- -- -- -- -- -- -- --
Cover BKN BKN BKN BKN SCT SCT SCT SKC SKC SKC SKC SKC SKC SKC
FltCat MVFR MVFR MVFR MVFR VFR VFR VFR VFR VFR VFR VFR VFR VFR VFR
WX -- -- -- -- -- -- -- -- -- -- -- -- -- --
WDir 310 280 280 280 280 280 280 280 280 280 280 280 280 280
WSpd 3 5 5 5 6 6 6 16 16 16 16 16 16 16
WGst -- -- -- -- -- -- -- 22 22 22 22 22 22 22
WSHgt -- -- -- -- -- -- -- -- -- -- -- -- -- --
WSDir -- -- -- -- -- -- -- -- -- -- -- -- -- --
WSSpd -- -- -- -- -- -- -- -- -- -- -- -- -- --
Raw TAF
KSFO 101120Z 1012/1118 28005KT P6SM FEW004 BKN011
  FM101700 28006KT P6SM FEW010 SCT016
  FM102000 28016G22KT P6SM SKC
  FM110500 28012KT P6SM FEW007 SCT013
  FM110900 28010KT P6SM FEW004 BKN011
  FM111700 28013KT P6SM FEW013


Raw METAR
KSFO 101256Z 31003KT 10SM FEW007 BKN013 18/14 A3004 RMK AO2 SLP172 T01780144 $
KSFO 101156Z 00000KT 10SM FEW007 BKN013 18/14 A3003 RMK AO2 SLP167 T01780144 10183 20178 55000 $
KSFO 101056Z 26005KT 10SM FEW007 BKN013 18/14 A3002 RMK AO2 SLP165 T01780144 $

METAR Board
Radar Display
Forecast Discussion
For situational awareness. Not to be used for flight planning purposes.